Zawiyat Shammas, Egypt
Current Conditions -  °F | °C
As of 1:00 PM on Thursday 30 Oct 2014 (Local Time) from HEMM Reporting Station
Scattered Clouds Scattered Clouds  
Wind Chill: 77°   Ceiling: Unl
Heat Index: 79°   Visibility: 6mi
Dew Point: 59°   Wind: 17mph
Humidity: 54%   Direction: 330°NNW
Pressure: 30"   Gusts: NA
Location:  31.52°N, 26.4°E
Report Text: HEMM 301100Z 33015KT 9999 SCT020 25/15 Q1016 NOSIG
Loading
Personal Weather Stations






























Interactive Weather Map
Tropical Storm Tracking
New forecast layout! Learn more

10-Day Weather Forecast

Advertisements
Track Severe Weather on mobile